sensor_id;sensor_type;location;lat;lon;timestamp;pressure;altitude;pressure_sealevel;temperature;humidity
50093;BME280;35974;47.752;10.290;2024-01-16T00:02:07;93129.41;;;-4.84;100.00
50093;BME280;35974;47.752;10.290;2024-01-16T00:04:37;93095.66;;;-5.07;100.00
50093;BME280;35974;47.752;10.290;2024-01-16T00:07:04;93124.56;;;-4.87;100.00
50093;BME280;35974;47.752;10.290;2024-01-16T00:09:35;93136.56;;;-4.78;100.00
50093;BME280;35974;47.752;10.290;2024-01-16T00:12:03;93147.97;;;-4.82;100.00
50093;BME280;35974;47.752;10.290;2024-01-16T00:14:30;93159.19;;;-4.94;100.00
50093;BME280;35974;47.752;10.290;2024-01-16T00:16:57;93131.16;;;-5.15;100.00
50093;BME280;35974;47.752;10.290;2024-01-16T00:19:23;93147.88;;;-5.01;100.00
50093;BME280;35974;47.752;10.290;2024-01-16T00:21:50;93135.47;;;-5.16;100.00
50093;BME280;35974;47.752;10.290;2024-01-16T00:24:17;93150.63;;;-5.14;100.00
50093;BME280;35974;47.752;10.290;2024-01-16T00:26:44;93151.88;;;-5.08;100.00
50093;BME280;35974;47.752;10.290;2024-01-16T00:29:12;93158.38;;;-4.94;100.00
50093;BME280;35974;47.752;10.290;2024-01-16T00:31:39;93168.84;;;-4.98;100.00
50093;BME280;35974;47.752;10.290;2024-01-16T00:34:06;93165.06;;;-5.03;100.00
50093;BME280;35974;47.752;10.290;2024-01-16T00:36:33;93154.59;;;-5.31;100.00
50093;BME280;35974;47.752;10.290;2024-01-16T00:39:00;93160.13;;;-5.26;100.00
50093;BME280;35974;47.752;10.290;2024-01-16T00:41:29;93148.28;;;-5.27;100.00
50093;BME280;35974;47.752;10.290;2024-01-16T00:43:55;93168.44;;;-5.24;100.00
50093;BME280;35974;47.752;10.290;2024-01-16T00:46:22;93145.31;;;-5.32;100.00
50093;BME280;35974;47.752;10.290;2024-01-16T00:48:48;93165.97;;;-5.35;100.00
50093;BME280;35974;47.752;10.290;2024-01-16T00:51:15;93182.06;;;-5.35;100.00
50093;BME280;35974;47.752;10.290;2024-01-16T00:53:42;93188.06;;;-5.45;100.00
50093;BME280;35974;47.752;10.290;2024-01-16T00:56:09;93191.78;;;-5.49;100.00
50093;BME280;35974;47.752;10.290;2024-01-16T00:58:37;93182.78;;;-5.54;100.00
50093;BME280;35974;47.752;10.290;2024-01-16T01:01:05;93173.06;;;-5.60;100.00
50093;BME280;35974;47.752;10.290;2024-01-16T01:03:31;93189.97;;;-5.59;100.00
50093;BME280;35974;47.752;10.290;2024-01-16T01:05:59;93189.72;;;-5.56;100.00
50093;BME280;35974;47.752;10.290;2024-01-16T01:08:27;93173.16;;;-5.82;100.00
50093;BME280;35974;47.752;10.290;2024-01-16T01:10:54;93173.88;;;-5.92;100.00
50093;BME280;35974;47.752;10.290;2024-01-16T01:13:21;93174.84;;;-5.93;100.00
50093;BME280;35974;47.752;10.290;2024-01-16T01:15:48;93168.91;;;-6.14;100.00
50093;BME280;35974;47.752;10.290;2024-01-16T01:18:14;93184.69;;;-6.20;100.00
50093;BME280;35974;47.752;10.290;2024-01-16T01:20:48;93181.44;;;-6.22;100.00
50093;BME280;35974;47.752;10.290;2024-01-16T01:23:15;93193.25;;;-6.21;100.00
50093;BME280;35974;47.752;10.290;2024-01-16T01:25:41;93193.72;;;-6.28;100.00
50093;BME280;35974;47.752;10.290;2024-01-16T01:28:11;93128.78;;;-6.66;100.00
50093;BME280;35974;47.752;10.290;2024-01-16T01:30:37;93195.09;;;-6.23;100.00
50093;BME280;35974;47.752;10.290;2024-01-16T01:33:04;93192.59;;;-6.35;100.00
50093;BME280;35974;47.752;10.290;2024-01-16T01:35:31;93200.47;;;-6.38;100.00
50093;BME280;35974;47.752;10.290;2024-01-16T01:37:57;93157.69;;;-6.67;100.00
50093;BME280;35974;47.752;10.290;2024-01-16T01:40:24;93182.22;;;-6.54;100.00
50093;BME280;35974;47.752;10.290;2024-01-16T01:42:50;93211.56;;;-6.39;100.00
50093;BME280;35974;47.752;10.290;2024-01-16T01:45:17;93203.25;;;-6.41;100.00
50093;BME280;35974;47.752;10.290;2024-01-16T01:47:43;93194.41;;;-6.37;100.00
50093;BME280;35974;47.752;10.290;2024-01-16T01:50:10;93193.00;;;-6.18;100.00
50093;BME280;35974;47.752;10.290;2024-01-16T01:52:39;93222.41;;;-5.93;100.00
50093;BME280;35974;47.752;10.290;2024-01-16T01:55:18;93181.84;;;-6.06;100.00
50093;BME280;35974;47.752;10.290;2024-01-16T01:57:44;93184.06;;;-5.92;100.00
50093;BME280;35974;47.752;10.290;2024-01-16T02:00:13;93184.66;;;-5.88;100.00
50093;BME280;35974;47.752;10.290;2024-01-16T02:02:41;93220.97;;;-5.75;100.00
50093;BME280;35974;47.752;10.290;2024-01-16T02:05:09;93203.75;;;-5.82;100.00
50093;BME280;35974;47.752;10.290;2024-01-16T02:07:36;93212.47;;;-5.64;100.00
50093;BME280;35974;47.752;10.290;2024-01-16T02:10:04;93204.44;;;-5.59;100.00
50093;BME280;35974;47.752;10.290;2024-01-16T02:12:30;93189.09;;;-5.69;100.00
50093;BME280;35974;47.752;10.290;2024-01-16T02:14:57;93162.28;;;-5.84;100.00
50093;BME280;35974;47.752;10.290;2024-01-16T02:17:25;93188.03;;;-5.66;100.00
50093;BME280;35974;47.752;10.290;2024-01-16T02:19:51;93165.66;;;-5.84;100.00
50093;BME280;35974;47.752;10.290;2024-01-16T02:22:20;93214.72;;;-5.49;100.00
50093;BME280;35974;47.752;10.290;2024-01-16T02:24:49;93195.94;;;-5.48;100.00
50093;BME280;35974;47.752;10.290;2024-01-16T02:27:16;93209.38;;;-5.46;100.00
50093;BME280;35974;47.752;10.290;2024-01-16T02:29:43;93186.72;;;-5.61;100.00
50093;BME280;35974;47.752;10.290;2024-01-16T02:32:12;93196.44;;;-5.55;100.00
50093;BME280;35974;47.752;10.290;2024-01-16T02:34:40;93198.56;;;-5.60;100.00
50093;BME280;35974;47.752;10.290;2024-01-16T02:37:06;93191.81;;;-5.61;100.00
50093;BME280;35974;47.752;10.290;2024-01-16T02:39:33;93198.06;;;-5.54;100.00
50093;BME280;35974;47.752;10.290;2024-01-16T02:41:59;93166.09;;;-5.58;100.00
50093;BME280;35974;47.752;10.290;2024-01-16T02:44:26;93194.06;;;-5.46;100.00
50093;BME280;35974;47.752;10.290;2024-01-16T02:46:59;93204.50;;;-5.49;100.00
50093;BME280;35974;47.752;10.290;2024-01-16T02:49:26;93197.31;;;-5.44;100.00
50093;BME280;35974;47.752;10.290;2024-01-16T02:51:53;93187.09;;;-5.44;100.00
50093;BME280;35974;47.752;10.290;2024-01-16T02:54:20;93189.72;;;-5.56;100.00
50093;BME280;35974;47.752;10.290;2024-01-16T02:56:47;93212.47;;;-5.43;100.00
50093;BME280;35974;47.752;10.290;2024-01-16T02:59:14;93216.72;;;-5.32;100.00
50093;BME280;35974;47.752;10.290;2024-01-16T03:01:40;93203.78;;;-5.40;100.00
50093;BME280;35974;47.752;10.290;2024-01-16T03:04:06;93185.75;;;-5.48;100.00
50093;BME280;35974;47.752;10.290;2024-01-16T03:06:33;93203.28;;;-5.34;100.00
50093;BME280;35974;47.752;10.290;2024-01-16T03:09:00;93190.59;;;-5.45;100.00
50093;BME280;35974;47.752;10.290;2024-01-16T03:11:26;93197.31;;;-5.44;100.00
50093;BME280;35974;47.752;10.290;2024-01-16T03:13:57;93176.41;;;-5.59;100.00
50093;BME280;35974;47.752;10.290;2024-01-16T03:16:24;93204.34;;;-5.37;100.00
50093;BME280;35974;47.752;10.290;2024-01-16T03:18:51;93210.81;;;-5.32;100.00
50093;BME280;35974;47.752;10.290;2024-01-16T03:21:18;93183.50;;;-5.63;100.00
50093;BME280;35974;47.752;10.290;2024-01-16T03:23:44;93190.34;;;-5.42;100.00
50093;BME280;35974;47.752;10.290;2024-01-16T03:26:16;93181.25;;;-5.35;100.00
50093;BME280;35974;47.752;10.290;2024-01-16T03:28:43;93192.38;;;-5.36;100.00
50093;BME280;35974;47.752;10.290;2024-01-16T03:31:09;93193.59;;;-5.40;100.00
50093;BME280;35974;47.752;10.290;2024-01-16T03:33:36;93198.19;;;-5.34;100.00
50093;BME280;35974;47.752;10.290;2024-01-16T03:36:09;93188.50;;;-5.40;100.00
50093;BME280;35974;47.752;10.290;2024-01-16T03:38:36;93209.25;;;-5.24;100.00
50093;BME280;35974;47.752;10.290;2024-01-16T03:41:05;93194.19;;;-5.27;100.00
50093;BME280;35974;47.752;10.290;2024-01-16T03:43:34;93200.44;;;-5.20;100.00
50093;BME280;35974;47.752;10.290;2024-01-16T03:46:01;93178.81;;;-5.16;100.00
50093;BME280;35974;47.752;10.290;2024-01-16T03:48:28;93196.19;;;-5.09;100.00
50093;BME280;35974;47.752;10.290;2024-01-16T03:50:55;93197.81;;;-5.08;100.00
50093;BME280;35974;47.752;10.290;2024-01-16T03:53:22;93199.66;;;-5.10;100.00
50093;BME280;35974;47.752;10.290;2024-01-16T03:55:49;93202.91;;;-5.08;100.00
50093;BME280;35974;47.752;10.290;2024-01-16T03:58:18;93186.22;;;-5.12;100.00
50093;BME280;35974;47.752;10.290;2024-01-16T04:00:44;93199.16;;;-5.04;100.00
50093;BME280;35974;47.752;10.290;2024-01-16T04:03:11;93196.44;;;-5.12;100.00
50093;BME280;35974;47.752;10.290;2024-01-16T04:05:39;93185.19;;;-5.10;100.00
50093;BME280;35974;47.752;10.290;2024-01-16T04:08:08;93197.81;;;-5.08;100.00
50093;BME280;35974;47.752;10.290;2024-01-16T04:10:35;93194.06;;;-5.04;100.00
50093;BME280;35974;47.752;10.290;2024-01-16T04:13:02;93200.38;;;-4.78;100.00
50093;BME280;35974;47.752;10.290;2024-01-16T04:15:29;93186.91;;;-4.80;100.00
50093;BME280;35974;47.752;10.290;2024-01-16T04:18:14;93186.91;;;-4.80;100.00
50093;BME280;35974;47.752;10.290;2024-01-16T04:20:40;93185.81;;;-4.87;100.00
50093;BME280;35974;47.752;10.290;2024-01-16T04:23:07;93193.66;;;-4.79;100.00
50093;BME280;35974;47.752;10.290;2024-01-16T04:25:34;93187.41;;;-4.86;100.00
50093;BME280;35974;47.752;10.290;2024-01-16T04:28:00;93174.03;;;-4.78;100.00
50093;BME280;35974;47.752;10.290;2024-01-16T04:30:28;93177.41;;;-4.78;100.00
50093;BME280;35974;47.752;10.290;2024-01-16T04:32:55;93176.97;;;-4.83;100.00
50093;BME280;35974;47.752;10.290;2024-01-16T04:35:22;93160.00;;;-4.93;100.00
50093;BME280;35974;47.752;10.290;2024-01-16T04:37:48;93157.84;;;-4.98;100.00
50093;BME280;35974;47.752;10.290;2024-01-16T04:40:15;93173.16;;;-4.98;100.00
50093;BME280;35974;47.752;10.290;2024-01-16T04:42:41;93175.88;;;-4.90;100.00
50093;BME280;35974;47.752;10.290;2024-01-16T04:45:10;93192.72;;;-4.78;100.00
50093;BME280;35974;47.752;10.290;2024-01-16T04:47:36;93172.81;;;-4.84;100.00
50093;BME280;35974;47.752;10.290;2024-01-16T04:50:03;93167.34;;;-4.69;100.00
50093;BME280;35974;47.752;10.290;2024-01-16T04:52:30;93174.34;;;-4.62;100.00
50093;BME280;35974;47.752;10.290;2024-01-16T04:54:56;93157.16;;;-4.69;100.00
50093;BME280;35974;47.752;10.290;2024-01-16T04:57:23;93186.97;;;-4.60;100.00
50093;BME280;35974;47.752;10.290;2024-01-16T04:59:50;93191.50;;;-4.73;100.00
50093;BME280;35974;47.752;10.290;2024-01-16T05:02:17;93189.13;;;-4.65;100.00
50093;BME280;35974;47.752;10.290;2024-01-16T05:04:44;93175.63;;;-4.87;100.00
50093;BME280;35974;47.752;10.290;2024-01-16T05:07:16;93177.75;;;-4.92;100.00
50093;BME280;35974;47.752;10.290;2024-01-16T05:09:44;93190.66;;;-4.84;100.00
50093;BME280;35974;47.752;10.290;2024-01-16T05:12:11;93181.38;;;-5.16;100.00
50093;BME280;35974;47.752;10.290;2024-01-16T05:14:39;93180.31;;;-5.13;100.00
50093;BME280;35974;47.752;10.290;2024-01-16T05:17:05;93162.97;;;-5.19;100.00
50093;BME280;35974;47.752;10.290;2024-01-16T05:22:36;93156.97;;;-5.39;100.00
50093;BME280;35974;47.752;10.290;2024-01-16T05:25:05;93167.09;;;-5.70;100.00
50093;BME280;35974;47.752;10.290;2024-01-16T05:27:34;93147.75;;;-5.94;100.00
50093;BME280;35974;47.752;10.290;2024-01-16T05:30:05;93161.16;;;-5.92;100.00
50093;BME280;35974;47.752;10.290;2024-01-16T05:32:33;93168.66;;;-6.11;100.00
50093;BME280;35974;47.752;10.290;2024-01-16T05:35:00;93151.84;;;-6.35;100.00
50093;BME280;35974;47.752;10.290;2024-01-16T05:37:27;93150.69;;;-6.42;100.00
50093;BME280;35974;47.752;10.290;2024-01-16T05:39:55;93156.94;;;-6.35;100.00
50093;BME280;35974;47.752;10.290;2024-01-16T05:42:22;93163.22;;;-6.50;100.00
50093;BME280;35974;47.752;10.290;2024-01-16T05:44:50;93161.41;;;-6.59;100.00
50093;BME280;35974;47.752;10.290;2024-01-16T05:47:16;93154.00;;;-6.74;100.00
50093;BME280;35974;47.752;10.290;2024-01-16T05:49:43;93137.13;;;-6.86;100.00
50093;BME280;35974;47.752;10.290;2024-01-16T05:52:09;93154.03;;;-6.85;100.00
50093;BME280;35974;47.752;10.290;2024-01-16T05:54:46;93129.75;;;-7.01;100.00
50093;BME280;35974;47.752;10.290;2024-01-16T05:57:21;93120.03;;;-7.07;100.00
50093;BME280;35974;47.752;10.290;2024-01-16T05:59:51;93107.81;;;-7.24;100.00
50093;BME280;35974;47.752;10.290;2024-01-16T06:02:24;93113.34;;;-7.08;100.00
50093;BME280;35974;47.752;10.290;2024-01-16T06:04:53;93117.75;;;-7.21;100.00
50093;BME280;35974;47.752;10.290;2024-01-16T06:07:19;93133.22;;;-7.24;100.00
50093;BME280;35974;47.752;10.290;2024-01-16T06:09:46;93108.72;;;-7.37;100.00
50093;BME280;35974;47.752;10.290;2024-01-16T06:12:12;93102.25;;;-7.41;100.00
50093;BME280;35974;47.752;10.290;2024-01-16T06:14:39;93126.28;;;-7.22;100.00
50093;BME280;35974;47.752;10.290;2024-01-16T06:17:05;93116.56;;;-7.28;100.00
50093;BME280;35974;47.752;10.290;2024-01-16T06:19:32;93114.47;;;-7.46;100.00
50093;BME280;35974;47.752;10.290;2024-01-16T06:21:59;93124.41;;;-7.43;100.00
50093;BME280;35974;47.752;10.290;2024-01-16T06:24:26;93114.84;;;-7.62;100.00
50093;BME280;35974;47.752;10.290;2024-01-16T06:26:52;93102.38;;;-7.53;100.00
50093;BME280;35974;47.752;10.290;2024-01-16T06:29:19;93107.56;;;-7.44;100.00
50093;BME280;35974;47.752;10.290;2024-01-16T06:31:57;93105.38;;;-7.48;100.00
50093;BME280;35974;47.752;10.290;2024-01-16T06:34:23;93121.53;;;-7.38;100.00
50093;BME280;35974;47.752;10.290;2024-01-16T06:36:50;93109.16;;;-7.43;100.00
50093;BME280;35974;47.752;10.290;2024-01-16T06:39:22;93113.81;;;-7.37;100.00
50093;BME280;35974;47.752;10.290;2024-01-16T06:41:49;93107.09;;;-7.60;100.00
50093;BME280;35974;47.752;10.290;2024-01-16T06:44:16;93111.47;;;-7.51;100.00
50093;BME280;35974;47.752;10.290;2024-01-16T06:46:43;93112.41;;;-7.63;100.00
50093;BME280;35974;47.752;10.290;2024-01-16T06:49:10;93126.06;;;-7.42;100.00
50093;BME280;35974;47.752;10.290;2024-01-16T06:51:37;93111.94;;;-7.57;100.00
50093;BME280;35974;47.752;10.290;2024-01-16T06:54:05;93101.75;;;-7.57;100.00
50093;BME280;35974;47.752;10.290;2024-01-16T06:56:31;93093.47;;;-7.59;100.00
50093;BME280;35974;47.752;10.290;2024-01-16T06:58:58;93114.25;;;-7.20;100.00
50093;BME280;35974;47.752;10.290;2024-01-16T07:01:24;93092.31;;;-7.44;100.00
50093;BME280;35974;47.752;10.290;2024-01-16T07:03:51;93090.56;;;-7.77;100.00
50093;BME280;35974;47.752;10.290;2024-01-16T07:06:18;93118.28;;;-7.63;100.00
50093;BME280;35974;47.752;10.290;2024-01-16T07:08:45;93110.09;;;-7.66;100.00
50093;BME280;35974;47.752;10.290;2024-01-16T07:11:12;93092.97;;;-7.76;100.00
50093;BME280;35974;47.752;10.290;2024-01-16T07:13:40;93124.16;;;-7.62;100.00
50093;BME280;35974;47.752;10.290;2024-01-16T07:16:10;93133.41;;;-7.61;100.00
50093;BME280;35974;47.752;10.290;2024-01-16T07:18:38;93146.56;;;-7.67;100.00
50093;BME280;35974;47.752;10.290;2024-01-16T07:21:16;93140.56;;;-7.78;100.00
50093;BME280;35974;47.752;10.290;2024-01-16T07:23:42;93090.59;;;-8.13;100.00
50093;BME280;35974;47.752;10.290;2024-01-16T07:26:10;93120.91;;;-7.87;100.00
50093;BME280;35974;47.752;10.290;2024-01-16T07:28:36;93132.69;;;-7.86;100.00
50093;BME280;35974;47.752;10.290;2024-01-16T07:31:03;93111.66;;;-7.88;100.00
50093;BME280;35974;47.752;10.290;2024-01-16T07:33:30;93119.78;;;-7.71;100.00
50093;BME280;35974;47.752;10.290;2024-01-16T07:35:56;93129.59;;;-7.56;100.00
50093;BME280;35974;47.752;10.290;2024-01-16T07:38:23;93134.22;;;-7.61;100.00
50093;BME280;35974;47.752;10.290;2024-01-16T07:40:49;93132.75;;;-7.52;100.00
50093;BME280;35974;47.752;10.290;2024-01-16T07:43:16;93127.31;;;-7.47;100.00
50093;BME280;35974;47.752;10.290;2024-01-16T07:45:43;93132.06;;;-7.31;100.00
50093;BME280;35974;47.752;10.290;2024-01-16T07:48:09;93128.03;;;-7.34;100.00
50093;BME280;35974;47.752;10.290;2024-01-16T07:50:36;93122.56;;;-7.18;100.00
50093;BME280;35974;47.752;10.290;2024-01-16T07:53:03;93141.09;;;-6.93;100.00
50093;BME280;35974;47.752;10.290;2024-01-16T07:55:29;93113.91;;;-6.93;100.00
50093;BME280;35974;47.752;10.290;2024-01-16T07:57:56;93116.91;;;-6.88;100.00
50093;BME280;35974;47.752;10.290;2024-01-16T08:00:22;93130.16;;;-6.62;100.00
50093;BME280;35974;47.752;10.290;2024-01-16T08:02:49;93107.97;;;-6.59;100.00
50093;BME280;35974;47.752;10.290;2024-01-16T08:05:15;93108.19;;;-6.63;100.00
50093;BME280;35974;47.752;10.290;2024-01-16T08:07:43;93096.72;;;-6.57;100.00
50093;BME280;35974;47.752;10.290;2024-01-16T08:10:10;93117.81;;;-6.34;100.00
50093;BME280;35974;47.752;10.290;2024-01-16T08:12:36;93117.56;;;-6.31;100.00
50093;BME280;35974;47.752;10.290;2024-01-16T08:15:04;93087.78;;;-6.40;100.00
50093;BME280;35974;47.752;10.290;2024-01-16T08:17:31;93096.47;;;-6.21;100.00
50093;BME280;35974;47.752;10.290;2024-01-16T08:19:58;93093.25;;;-6.23;100.00
50093;BME280;35974;47.752;10.290;2024-01-16T08:22:24;93110.28;;;-6.03;100.00
50093;BME280;35974;47.752;10.290;2024-01-16T08:24:51;93119.13;;;-6.07;100.00
50093;BME280;35974;47.752;10.290;2024-01-16T08:27:18;93124.53;;;-6.00;100.00
50093;BME280;35974;47.752;10.290;2024-01-16T08:29:45;93122.69;;;-5.89;100.00
50093;BME280;35974;47.752;10.290;2024-01-16T08:32:14;93105.81;;;-5.90;100.00
50093;BME280;35974;47.752;10.290;2024-01-16T08:34:40;93112.00;;;-5.82;100.00
50093;BME280;35974;47.752;10.290;2024-01-16T08:37:07;93115.88;;;-5.67;100.00
50093;BME280;35974;47.752;10.290;2024-01-16T08:39:33;93103.81;;;-5.65;100.00
50093;BME280;35974;47.752;10.290;2024-01-16T08:42:00;93106.06;;;-5.50;100.00
50093;BME280;35974;47.752;10.290;2024-01-16T08:44:29;93105.03;;;-5.38;100.00
50093;BME280;35974;47.752;10.290;2024-01-16T08:46:55;93092.94;;;-5.36;100.00
50093;BME280;35974;47.752;10.290;2024-01-16T08:49:22;93101.53;;;-5.37;100.00
50093;BME280;35974;47.752;10.290;2024-01-16T08:51:48;93102.63;;;-5.30;100.00
50093;BME280;35974;47.752;10.290;2024-01-16T08:54:15;93093.72;;;-5.45;100.00
50093;BME280;35974;47.752;10.290;2024-01-16T08:56:41;93101.13;;;-5.42;100.00
50093;BME280;35974;47.752;10.290;2024-01-16T08:59:08;93097.03;;;-5.24;100.00
50093;BME280;35974;47.752;10.290;2024-01-16T09:01:36;93106.13;;;-5.00;100.00
50093;BME280;35974;47.752;10.290;2024-01-16T09:04:03;93091.84;;;-4.62;100.00
50093;BME280;35974;47.752;10.290;2024-01-16T09:06:30;93105.59;;;-4.44;100.00
50093;BME280;35974;47.752;10.290;2024-01-16T09:08:56;93058.53;;;-4.51;100.00
50093;BME280;35974;47.752;10.290;2024-01-16T09:11:23;93090.44;;;-4.16;100.00
50093;BME280;35974;47.752;10.290;2024-01-16T09:13:49;93078.72;;;-3.79;100.00
50093;BME280;35974;47.752;10.290;2024-01-16T09:16:16;93084.34;;;-3.76;100.00
50093;BME280;35974;47.752;10.290;2024-01-16T09:18:42;93080.97;;;-3.66;100.00
50093;BME280;35974;47.752;10.290;2024-01-16T09:21:09;93085.44;;;-3.69;100.00
50093;BME280;35974;47.752;10.290;2024-01-16T09:23:35;93081.41;;;-3.81;100.00
50093;BME280;35974;47.752;10.290;2024-01-16T09:26:02;93074.97;;;-3.85;100.00
50093;BME280;35974;47.752;10.290;2024-01-16T09:28:29;93085.16;;;-3.75;100.00
50093;BME280;35974;47.752;10.290;2024-01-16T09:30:55;93079.75;;;-3.72;100.00
50093;BME280;35974;47.752;10.290;2024-01-16T09:33:25;93087.00;;;-3.58;100.00
50093;BME280;35974;47.752;10.290;2024-01-16T09:35:52;93096.13;;;-3.36;100.00
50093;BME280;35974;47.752;10.290;2024-01-16T09:38:19;93064.06;;;-3.40;100.00
50093;BME280;35974;47.752;10.290;2024-01-16T09:40:48;93074.75;;;-3.07;100.00
50093;BME280;35974;47.752;10.290;2024-01-16T09:43:17;93091.53;;;-2.67;100.00
50093;BME280;35974;47.752;10.290;2024-01-16T09:45:44;93090.56;;;-2.38;100.00
50093;BME280;35974;47.752;10.290;2024-01-16T09:48:13;93097.59;;;-2.22;100.00
50093;BME280;35974;47.752;10.290;2024-01-16T09:50:41;93091.13;;;-2.44;100.00
50093;BME280;35974;47.752;10.290;2024-01-16T09:53:07;93057.16;;;-2.46;100.00
50093;BME280;35974;47.752;10.290;2024-01-16T09:55:34;93072.34;;;-1.99;100.00
50093;BME280;35974;47.752;10.290;2024-01-16T09:58:01;93056.19;;;-1.73;100.00
50093;BME280;35974;47.752;10.290;2024-01-16T10:00:31;93058.94;;;-1.93;100.00
50093;BME280;35974;47.752;10.290;2024-01-16T10:02:59;93039.75;;;-2.25;100.00
50093;BME280;35974;47.752;10.290;2024-01-16T10:05:26;93065.31;;;-2.15;100.00
50093;BME280;35974;47.752;10.290;2024-01-16T10:07:54;93042.94;;;-2.59;100.00
50093;BME280;35974;47.752;10.290;2024-01-16T10:10:20;93037.66;;;-2.75;100.00
50093;BME280;35974;47.752;10.290;2024-01-16T10:13:03;93061.72;;;-2.40;100.00
50093;BME280;35974;47.752;10.290;2024-01-16T10:15:31;93053.53;;;-2.26;100.00
50093;BME280;35974;47.752;10.290;2024-01-16T10:17:58;93040.44;;;-1.78;100.00
50093;BME280;35974;47.752;10.290;2024-01-16T10:20:33;93035.81;;;-1.49;100.00
50093;BME280;35974;47.752;10.290;2024-01-16T10:23:00;93039.75;;;-1.36;100.00
50093;BME280;35974;47.752;10.290;2024-01-16T10:25:27;93035.59;;;-1.29;100.00
50093;BME280;35974;47.752;10.290;2024-01-16T10:28:03;93020.81;;;-1.35;100.00
50093;BME280;35974;47.752;10.290;2024-01-16T10:30:31;93029.34;;;-1.00;100.00
50093;BME280;35974;47.752;10.290;2024-01-16T10:33:12;93021.13;;;-0.53;100.00
50093;BME280;35974;47.752;10.290;2024-01-16T10:35:40;93022.63;;;-0.09;100.00
50093;BME280;35974;47.752;10.290;2024-01-16T10:38:07;93013.13;;;-0.25;100.00
50093;BME280;35974;47.752;10.290;2024-01-16T10:40:34;93002.84;;;-0.33;100.00
50093;BME280;35974;47.752;10.290;2024-01-16T10:43:03;93017.97;;;-0.22;100.00
50093;BME280;35974;47.752;10.290;2024-01-16T10:45:32;93022.78;;;-0.11;100.00
50093;BME280;35974;47.752;10.290;2024-01-16T10:50:34;93008.78;;;-0.08;100.00
50093;BME280;35974;47.752;10.290;2024-01-16T10:53:08;93003.81;;;-0.18;100.00
50093;BME280;35974;47.752;10.290;2024-01-16T10:55:49;93019.59;;;0.12;100.00
50093;BME280;35974;47.752;10.290;2024-01-16T10:58:21;93013.78;;;0.02;100.00
50093;BME280;35974;47.752;10.290;2024-01-16T11:00:52;93005.75;;;-0.04;100.00
50093;BME280;35974;47.752;10.290;2024-01-16T11:05:57;93022.47;;;0.09;100.00
50093;BME280;35974;47.752;10.290;2024-01-16T11:08:24;93010.88;;;0.38;100.00
50093;BME280;35974;47.752;10.290;2024-01-16T11:10:59;93006.34;;;0.56;100.00
50093;BME280;35974;47.752;10.290;2024-01-16T11:13:26;92999.94;;;0.35;100.00
50093;BME280;35974;47.752;10.290;2024-01-16T11:15:53;93018.88;;;0.67;100.00
50093;BME280;35974;47.752;10.290;2024-01-16T11:18:20;92976.47;;;0.30;100.00
50093;BME280;35974;47.752;10.290;2024-01-16T11:20:47;92982.22;;;0.41;100.00
50093;BME280;35974;47.752;10.290;2024-01-16T11:23:32;92988.53;;;0.38;100.00
50093;BME280;35974;47.752;10.290;2024-01-16T11:25:58;92983.91;;;0.09;100.00
50093;BME280;35974;47.752;10.290;2024-01-16T11:28:29;92991.28;;;0.04;100.00
50093;BME280;35974;47.752;10.290;2024-01-16T11:30:56;92984.53;;;-0.06;100.00
50093;BME280;35974;47.752;10.290;2024-01-16T11:35:59;92981.31;;;0.17;100.00
50093;BME280;35974;47.752;10.290;2024-01-16T11:38:26;92963.66;;;-0.11;100.00
50093;BME280;35974;47.752;10.290;2024-01-16T11:40:53;92978.44;;;0.12;100.00
50093;BME280;35974;47.752;10.290;2024-01-16T11:46:06;93005.72;;;0.21;100.00
50093;BME280;35974;47.752;10.290;2024-01-16T11:48:36;92984.22;;;0.06;100.00
50093;BME280;35974;47.752;10.290;2024-01-16T11:51:24;92993.53;;;0.23;100.00
50093;BME280;35974;47.752;10.290;2024-01-16T11:53:51;92970.69;;;0.20;100.00
50093;BME280;35974;47.752;10.290;2024-01-16T12:02:02;92958.06;;;0.58;100.00
50093;BME280;35974;47.752;10.290;2024-01-16T12:04:32;92949.75;;;0.40;100.00
50093;BME280;35974;47.752;10.290;2024-01-16T12:06:59;92949.16;;;0.29;100.00
50093;BME280;35974;47.752;10.290;2024-01-16T12:09:27;92942.34;;;0.45;100.00
50093;BME280;35974;47.752;10.290;2024-01-16T12:11:58;92959.13;;;0.80;100.00
50093;BME280;35974;47.752;10.290;2024-01-16T12:14:25;92880.56;;;0.45;100.00
50093;BME280;35974;47.752;10.290;2024-01-16T12:16:53;92945.47;;;0.80;100.00
50093;BME280;35974;47.752;10.290;2024-01-16T12:19:34;92929.69;;;0.75;100.00
50093;BME280;35974;47.752;10.290;2024-01-16T12:22:01;92936.00;;;1.03;100.00
50093;BME280;35974;47.752;10.290;2024-01-16T12:24:29;92935.03;;;1.04;100.00
50093;BME280;35974;47.752;10.290;2024-01-16T12:27:00;92915.72;;;1.00;100.00
50093;BME280;35974;47.752;10.290;2024-01-16T12:29:27;92909.56;;;1.09;100.00
50093;BME280;35974;47.752;10.290;2024-01-16T12:32:13;92911.41;;;1.24;100.00
50093;BME280;35974;47.752;10.290;2024-01-16T12:34:46;92897.56;;;1.48;100.00
50093;BME280;35974;47.752;10.290;2024-01-16T12:37:14;92898.69;;;1.45;100.00
50093;BME280;35974;47.752;10.290;2024-01-16T12:39:41;92898.63;;;1.54;100.00
50093;BME280;35974;47.752;10.290;2024-01-16T12:42:09;92872.38;;;1.35;100.00
50093;BME280;35974;47.752;10.290;2024-01-16T12:44:36;92878.88;;;1.69;100.00
50093;BME280;35974;47.752;10.290;2024-01-16T12:47:04;92879.41;;;1.79;100.00
50093;BME280;35974;47.752;10.290;2024-01-16T12:49:31;92870.03;;;1.63;100.00
50093;BME280;35974;47.752;10.290;2024-01-16T12:52:18;92871.94;;;1.23;100.00
50093;BME280;35974;47.752;10.290;2024-01-16T12:54:46;92873.84;;;1.91;100.00
50093;BME280;35974;47.752;10.290;2024-01-16T12:57:20;92874.19;;;1.88;100.00
50093;BME280;35974;47.752;10.290;2024-01-16T12:59:47;92849.34;;;1.87;100.00
50093;BME280;35974;47.752;10.290;2024-01-16T13:02:25;92836.06;;;2.79;100.00
50093;BME280;35974;47.752;10.290;2024-01-16T13:04:59;92856.50;;;2.44;100.00